createdAt,value
2023-02-22T00:04:52.688Z,35.00
2023-02-22T00:07:21.355Z,35.33
2023-02-22T00:09:49.446Z,30.50
2023-02-22T00:12:17.319Z,39.90
2023-02-22T00:14:44.993Z,33.00
2023-02-22T00:17:13.473Z,31.10
2023-02-22T00:19:41.204Z,34.38
2023-02-22T00:22:10.259Z,33.33
2023-02-22T00:24:37.964Z,36.67
2023-02-22T00:27:05.761Z,36.22
2023-02-22T00:29:34.588Z,28.90
2023-02-22T00:32:02.358Z,33.65
2023-02-22T00:34:30.126Z,30.90
2023-02-22T00:36:57.820Z,33.75
2023-02-22T00:39:27.006Z,31.65
2023-02-22T00:41:54.730Z,31.02
2023-02-22T00:44:22.504Z,31.27
2023-02-22T00:46:50.642Z,32.30
2023-02-22T00:49:18.324Z,32.50
2023-02-22T00:51:46.149Z,33.10
2023-02-22T00:54:14.416Z,32.80
2023-02-22T00:56:43.841Z,29.70
2023-02-22T00:59:11.546Z,27.00
2023-02-22T01:01:39.384Z,24.92
2023-02-22T01:04:07.138Z,28.05
2023-02-22T01:06:35.183Z,30.80
2023-02-22T01:09:04.876Z,26.48
2023-02-22T01:11:32.622Z,27.27
2023-02-22T01:14:03.526Z,27.77
2023-02-22T01:16:31.325Z,33.03
2023-02-22T01:19:01.293Z,24.45
2023-02-22T01:21:29.118Z,27.95
2023-02-22T01:23:56.885Z,26.40
2023-02-22T01:26:24.642Z,28.13
2023-02-22T01:28:53.174Z,29.58
2023-02-22T01:31:24.038Z,29.52
2023-02-22T01:33:52.098Z,34.95
2023-02-22T01:36:19.803Z,30.30
2023-02-22T01:38:47.672Z,41.33
2023-02-22T01:41:18.390Z,48.55
2023-02-22T01:43:46.550Z,37.17
2023-02-22T01:46:25.519Z,32.08
2023-02-22T01:48:57.892Z,46.85
2023-02-22T01:51:29.464Z,39.20
2023-02-22T01:54:02.711Z,29.05
2023-02-22T01:56:33.785Z,32.90
2023-02-22T01:59:06.728Z,27.25
2023-02-22T02:01:37.354Z,37.22
2023-02-22T02:04:08.752Z,35.97
2023-02-22T02:06:38.053Z,37.67
2023-02-22T02:09:11.767Z,32.45
2023-02-22T02:11:41.390Z,27.20
2023-02-22T02:14:11.049Z,24.52
2023-02-22T02:16:42.917Z,33.90
2023-02-22T02:19:20.368Z,36.70
2023-02-22T02:22:13.763Z,38.67
2023-02-22T02:25:18.988Z,30.33
2023-02-22T02:28:06.885Z,38.35
2023-02-22T02:30:50.841Z,43.13
2023-02-22T02:33:27.009Z,44.42
2023-02-22T02:36:04.022Z,48.17
2023-02-22T02:38:40.363Z,39.90
2023-02-22T02:41:14.234Z,41.67
2023-02-22T02:43:48.997Z,42.45
2023-02-22T02:46:21.637Z,50.08
2023-02-22T02:48:56.672Z,41.00
2023-02-22T02:51:29.512Z,38.13
2023-02-22T02:53:58.454Z,43.05
2023-02-22T02:56:26.411Z,44.05
2023-02-22T02:58:55.603Z,31.83
2023-02-22T03:01:45.123Z,48.30
2023-02-22T03:04:29.730Z,37.85
2023-02-22T03:07:17.417Z,29.15
2023-02-22T03:10:00.765Z,30.00
2023-02-22T03:12:39.818Z,37.78
2023-02-22T03:15:21.980Z,48.85
2023-02-22T03:17:55.255Z,35.47
2023-02-22T03:20:31.745Z,47.42
2023-02-22T03:23:05.904Z,29.67
2023-02-22T03:25:39.517Z,47.25
2023-02-22T03:28:11.725Z,53.63
2023-02-22T03:30:44.238Z,36.05
2023-02-22T03:33:16.904Z,44.75
2023-02-22T03:35:51.421Z,37.53
2023-02-22T03:38:22.059Z,36.88
2023-02-22T03:40:55.322Z,54.88
2023-02-22T03:43:26.636Z,37.38
2023-02-22T03:45:59.440Z,40.80
2023-02-22T03:48:32.483Z,38.58
2023-02-22T03:51:04.912Z,55.42
2023-02-22T03:53:37.526Z,52.72
2023-02-22T03:56:10.409Z,39.33
2023-02-22T03:58:43.996Z,38.92
2023-02-22T04:01:12.887Z,53.13
2023-02-22T04:03:42.107Z,49.55
2023-02-22T04:06:11.637Z,47.63
2023-02-22T04:08:40.016Z,64.22
2023-02-22T04:11:08.654Z,71.55
2023-02-22T04:13:36.546Z,54.90
2023-02-22T04:16:04.521Z,84.35
2023-02-22T04:18:32.471Z,77.05
2023-02-22T04:21:01.352Z,57.28
2023-02-22T04:23:36.274Z,60.83
2023-02-22T04:26:04.532Z,74.07
2023-02-22T04:28:32.253Z,110.80
2023-02-22T04:31:10.119Z,69.75
2023-02-22T04:33:38.629Z,193.25
2023-02-22T04:36:07.567Z,217.48
2023-02-22T04:38:37.588Z,189.02
2023-02-22T04:41:05.575Z,198.98
2023-02-22T04:43:33.642Z,51.47
2023-02-22T04:46:08.643Z,127.50
2023-02-22T04:48:36.444Z,175.15
2023-02-22T04:51:04.336Z,259.33
2023-02-22T04:53:33.228Z,110.63
2023-02-22T04:56:02.694Z,69.30
2023-02-22T04:58:31.788Z,86.95
2023-02-22T05:00:59.673Z,70.40
2023-02-22T05:03:27.888Z,114.03
2023-02-22T05:05:55.770Z,59.30
2023-02-22T05:08:23.526Z,164.05
2023-02-22T05:10:51.331Z,162.32
2023-02-22T05:13:20.381Z,122.05
2023-02-22T05:15:48.803Z,163.00
2023-02-22T05:18:17.076Z,70.82
2023-02-22T05:20:44.776Z,169.25
2023-02-22T05:23:12.529Z,84.35
2023-02-22T05:25:40.242Z,49.90
2023-02-22T05:28:12.558Z,107.15
2023-02-22T05:30:42.040Z,152.60
2023-02-22T05:33:10.693Z,108.35
2023-02-22T05:35:38.467Z,89.25
2023-02-22T05:38:07.005Z,55.60
2023-02-22T05:40:35.152Z,55.70
2023-02-22T05:43:03.859Z,57.40
2023-02-22T05:45:31.579Z,87.28
2023-02-22T05:48:00.993Z,163.68
2023-02-22T05:50:28.782Z,41.08
2023-02-22T05:52:56.749Z,23.50
2023-02-22T05:55:24.957Z,21.80
2023-02-22T05:57:53.382Z,53.70
2023-02-22T06:00:23.431Z,53.28
2023-02-22T06:02:55.594Z,45.53
2023-02-22T06:05:25.125Z,33.28
2023-02-22T06:07:53.791Z,29.15
2023-02-22T06:10:21.901Z,30.00
2023-02-22T06:12:50.350Z,30.33
2023-02-22T06:15:19.761Z,39.05
2023-02-22T06:17:48.436Z,38.22
2023-02-22T06:20:18.736Z,37.85
2023-02-22T06:22:49.780Z,39.70
2023-02-22T06:25:20.052Z,45.03
2023-02-22T06:27:47.859Z,25.67
2023-02-22T06:30:18.959Z,31.98
2023-02-22T06:32:46.680Z,32.45
2023-02-22T06:35:16.179Z,36.70
2023-02-22T06:37:43.961Z,36.92
2023-02-22T06:40:14.293Z,37.88
2023-02-22T06:42:42.523Z,45.45
2023-02-22T06:45:11.263Z,26.30
2023-02-22T06:47:40.237Z,29.15
2023-02-22T06:50:09.619Z,37.95
2023-02-22T06:52:37.330Z,42.42
2023-02-22T06:55:05.429Z,37.08
2023-02-22T06:57:34.550Z,46.80
2023-02-22T07:00:02.240Z,30.20
2023-02-22T07:02:29.974Z,43.75
2023-02-22T07:04:57.690Z,33.47
2023-02-22T07:07:25.547Z,38.70
2023-02-22T07:09:53.295Z,47.47
2023-02-22T07:12:21.062Z,34.55
2023-02-22T07:14:50.126Z,58.67
2023-02-22T07:17:17.843Z,48.17
2023-02-22T07:19:45.528Z,55.35
2023-02-22T07:22:13.325Z,51.30
2023-02-22T07:24:41.127Z,36.40
2023-02-22T07:27:08.830Z,34.17
2023-02-22T07:29:36.611Z,64.82
2023-02-22T07:32:05.829Z,58.78
2023-02-22T07:34:33.573Z,70.00
2023-02-22T07:37:01.281Z,66.25
2023-02-22T07:39:28.962Z,50.35
2023-02-22T07:41:56.687Z,69.78
2023-02-22T07:44:25.164Z,75.45
2023-02-22T07:46:52.889Z,74.40
2023-02-22T07:49:22.047Z,65.38
2023-02-22T07:51:49.803Z,54.17
2023-02-22T07:54:17.737Z,75.00
2023-02-22T07:56:46.726Z,56.30
2023-02-22T07:59:14.643Z,51.55
2023-02-22T08:01:42.883Z,66.05
2023-02-22T08:04:10.604Z,58.67
2023-02-22T08:06:39.732Z,67.30
2023-02-22T08:09:07.702Z,51.67
2023-02-22T08:11:35.475Z,68.40
2023-02-22T08:14:03.253Z,63.85
2023-02-22T08:16:30.945Z,68.70
2023-02-22T08:18:58.625Z,54.63
2023-02-22T08:21:26.448Z,70.72
2023-02-22T08:23:55.948Z,57.13
2023-02-22T08:26:25.301Z,52.75
2023-02-22T08:28:53.078Z,63.22
2023-02-22T08:31:20.983Z,63.92
2023-02-22T08:33:50.042Z,58.92
2023-02-22T08:36:18.581Z,60.35
2023-02-22T08:38:46.317Z,63.42
2023-02-22T08:41:15.630Z,55.70
2023-02-22T08:43:43.476Z,60.17
2023-02-22T08:46:11.307Z,51.30
2023-02-22T08:48:39.020Z,54.22
2023-02-22T08:51:07.080Z,53.67
2023-02-22T08:53:34.857Z,49.35
2023-02-22T08:56:02.582Z,61.88
2023-02-22T08:58:31.666Z,44.15
2023-02-22T09:00:59.386Z,43.20
2023-02-22T09:03:27.133Z,41.83
2023-02-22T09:05:55.448Z,45.78
2023-02-22T09:08:23.262Z,41.58
2023-02-22T09:10:51.801Z,50.50
2023-02-22T09:13:20.648Z,38.85
2023-02-22T09:15:49.793Z,42.67
2023-02-22T09:18:18.068Z,45.20
2023-02-22T09:20:45.847Z,50.03
2023-02-22T09:23:14.418Z,45.78
2023-02-22T09:25:42.185Z,45.30
2023-02-22T09:28:10.575Z,36.95
2023-02-22T09:30:38.738Z,35.53
2023-02-22T09:33:10.658Z,27.05
2023-02-22T09:35:42.365Z,26.63
2023-02-22T09:38:11.312Z,25.63
2023-02-22T09:40:45.105Z,23.10
2023-02-22T09:43:32.146Z,25.92
2023-02-22T09:46:12.059Z,24.77
2023-02-22T09:48:53.445Z,23.63
2023-02-22T09:51:27.452Z,25.35
2023-02-22T09:53:59.048Z,22.40
2023-02-22T09:56:27.999Z,25.05
2023-02-22T09:58:58.029Z,21.42
2023-02-22T10:01:29.140Z,18.25
2023-02-22T10:04:04.164Z,19.50
2023-02-22T10:06:34.693Z,20.10
2023-02-22T10:09:07.865Z,20.05
2023-02-22T10:11:50.313Z,22.85
2023-02-22T10:14:44.234Z,19.67
2023-02-22T10:17:22.291Z,19.88
2023-02-22T10:20:06.051Z,19.02
2023-02-22T10:22:45.905Z,18.15
2023-02-22T10:25:17.964Z,18.13
2023-02-22T10:27:49.220Z,18.17
2023-02-22T10:30:25.417Z,20.55
2023-02-22T10:35:27.487Z,17.38
2023-02-22T10:37:59.901Z,18.23
2023-02-22T10:40:33.009Z,17.13
2023-02-22T10:43:05.902Z,15.15
2023-02-22T10:45:37.050Z,18.95
2023-02-22T10:48:08.516Z,18.55
2023-02-22T10:50:40.809Z,15.60
2023-02-22T10:53:09.379Z,17.27
2023-02-22T10:55:39.049Z,15.70
2023-02-22T10:58:08.843Z,19.27
2023-02-22T11:00:38.225Z,17.88
2023-02-22T11:03:17.573Z,15.07
2023-02-22T11:05:46.863Z,15.00
2023-02-22T11:08:17.008Z,18.48
2023-02-22T11:10:44.741Z,17.40
2023-02-22T11:13:19.683Z,16.10
2023-02-22T11:15:47.942Z,15.88
2023-02-22T11:18:26.355Z,14.18
2023-02-22T11:21:07.653Z,13.95
2023-02-22T11:23:36.262Z,15.57
2023-02-22T11:26:08.393Z,16.15
2023-02-22T11:28:38.365Z,15.15
2023-02-22T11:31:17.383Z,15.57
2023-02-22T11:33:52.601Z,10.80
2023-02-22T11:36:43.939Z,15.00
2023-02-22T11:39:23.978Z,12.38
2023-02-22T11:41:52.215Z,13.07
2023-02-22T11:44:25.749Z,20.25
2023-02-22T11:46:55.845Z,13.52
2023-02-22T11:49:33.220Z,10.70
2023-02-22T11:52:19.271Z,14.27
2023-02-22T11:55:07.340Z,10.02
2023-02-22T11:57:49.707Z,9.95
2023-02-22T12:00:25.516Z,11.57
2023-02-22T12:03:14.648Z,9.60
2023-02-22T12:05:59.588Z,12.77
2023-02-22T12:08:37.906Z,12.32
2023-02-22T12:11:12.839Z,10.45
2023-02-22T12:13:59.962Z,10.70
2023-02-22T12:16:36.270Z,8.75
2023-02-22T12:19:12.553Z,11.02
2023-02-22T12:21:44.116Z,10.10
2023-02-22T12:24:18.571Z,13.88
2023-02-22T12:26:51.119Z,9.43
2023-02-22T12:29:27.614Z,10.82
2023-02-22T12:34:34.173Z,9.38
2023-02-22T12:37:08.546Z,8.20
2023-02-22T12:39:53.422Z,9.13
2023-02-22T12:42:29.209Z,8.53
2023-02-22T12:45:01.197Z,9.73
2023-02-22T12:47:37.718Z,8.35
2023-02-22T12:52:45.819Z,7.50
2023-02-22T12:55:19.331Z,6.80
2023-02-22T12:57:52.724Z,7.93
2023-02-22T13:00:26.181Z,7.88
2023-02-22T13:03:00.080Z,7.63
2023-02-22T13:05:31.429Z,7.35
2023-02-22T13:08:15.387Z,7.18
2023-02-22T13:11:09.483Z,7.95
2023-02-22T13:13:47.043Z,10.25
2023-02-22T13:16:27.988Z,9.55
2023-02-22T13:19:03.733Z,7.40
2023-02-22T13:21:44.295Z,6.68
2023-02-22T13:24:20.484Z,5.63
2023-02-22T13:26:53.708Z,8.32
2023-02-22T13:29:28.387Z,7.72
2023-02-22T13:32:15.628Z,7.13
2023-02-22T13:35:06.691Z,6.80
2023-02-22T13:37:57.527Z,6.55
2023-02-22T13:40:56.172Z,8.95
2023-02-22T13:43:44.255Z,8.57
2023-02-22T13:46:27.794Z,6.78
2023-02-22T13:49:16.922Z,6.88
2023-02-22T13:51:49.407Z,7.43
2023-02-22T13:54:24.601Z,6.93
2023-02-22T13:56:55.122Z,7.15
2023-02-22T13:59:27.873Z,7.28
2023-02-22T14:01:56.707Z,6.57
2023-02-22T14:04:45.573Z,7.80
2023-02-22T14:07:49.758Z,8.50
2023-02-22T14:10:56.124Z,11.05
2023-02-22T14:13:26.588Z,8.68
2023-02-22T14:16:25.258Z,7.03
2023-02-22T14:19:06.290Z,8.80
2023-02-22T14:21:35.593Z,7.28
2023-02-22T14:24:13.374Z,6.50
2023-02-22T14:26:53.926Z,6.07
2023-02-22T14:29:21.698Z,8.25
2023-02-22T14:32:10.622Z,6.60
2023-02-22T14:34:58.346Z,9.23
2023-02-22T14:37:28.577Z,7.55
2023-02-22T14:40:12.568Z,7.50
2023-02-22T14:42:45.102Z,9.68
2023-02-22T14:45:20.748Z,9.20
2023-02-22T14:48:01.013Z,7.37
2023-02-22T14:50:38.514Z,10.38
2023-02-22T14:53:14.295Z,8.73
2023-02-22T14:55:44.589Z,10.45
2023-02-22T14:58:18.685Z,7.40
2023-02-22T15:00:48.770Z,9.13
2023-02-22T15:03:32.675Z,8.45
2023-02-22T15:06:06.259Z,10.88
2023-02-22T15:08:34.517Z,8.77
2023-02-22T15:11:03.453Z,8.35
2023-02-22T15:13:34.207Z,8.73
2023-02-22T15:16:04.254Z,7.55
2023-02-22T15:18:39.652Z,7.15
2023-02-22T15:21:15.433Z,5.40
2023-02-22T15:23:46.086Z,5.80
2023-02-22T15:26:19.226Z,6.88
2023-02-22T15:28:48.319Z,4.68
2023-02-22T15:31:30.140Z,4.50
2023-02-22T15:34:11.670Z,5.65
2023-02-22T15:36:39.510Z,7.32
2023-02-22T15:39:08.823Z,6.28
2023-02-22T15:41:36.741Z,8.93
2023-02-22T15:44:17.745Z,8.23
2023-02-22T15:46:49.430Z,6.03
2023-02-22T15:49:24.317Z,4.40
2023-02-22T15:52:04.551Z,5.72
2023-02-22T15:54:40.541Z,5.72
2023-02-22T15:57:08.382Z,4.97
2023-02-22T15:59:45.058Z,7.35
2023-02-22T16:02:34.129Z,7.13
2023-02-22T16:05:06.931Z,8.07
2023-02-22T16:07:41.898Z,8.00
2023-02-22T16:10:22.792Z,4.82
2023-02-22T16:12:50.610Z,4.82
2023-02-22T16:15:19.659Z,8.40
2023-02-22T16:18:01.552Z,5.10
2023-02-22T16:20:33.588Z,7.78
2023-02-22T16:23:01.619Z,10.23
2023-02-22T16:25:35.668Z,8.55
2023-02-22T16:28:24.508Z,6.15
2023-02-22T16:30:58.462Z,7.40
2023-02-22T16:33:29.773Z,6.05
2023-02-22T16:35:58.981Z,5.30
2023-02-22T16:38:27.490Z,7.07
2023-02-22T16:40:58.215Z,6.70
2023-02-22T16:43:29.841Z,5.85
2023-02-22T16:45:57.596Z,5.28
2023-02-22T16:48:26.761Z,7.03
2023-02-22T16:50:56.402Z,4.53
2023-02-22T16:53:31.599Z,6.90
2023-02-22T16:56:04.349Z,6.47
2023-02-22T16:58:34.886Z,4.68
2023-02-22T17:03:30.445Z,6.38
2023-02-22T17:05:58.307Z,8.90
2023-02-22T17:08:27.427Z,5.35
2023-02-22T17:10:56.677Z,4.95
2023-02-22T17:13:27.610Z,5.72
2023-02-22T17:15:55.716Z,6.45
2023-02-22T17:18:28.512Z,5.28
2023-02-22T17:20:57.254Z,4.40
2023-02-22T17:23:27.502Z,6.30
2023-02-22T17:25:59.161Z,5.25
2023-02-22T17:28:27.839Z,6.57
2023-02-22T17:31:01.361Z,12.70
2023-02-22T17:33:32.924Z,16.20
2023-02-22T17:36:02.837Z,53.17
2023-02-22T17:38:32.236Z,56.40
2023-02-22T17:41:01.626Z,47.22
2023-02-22T17:43:30.015Z,48.97
2023-02-22T17:45:58.334Z,56.40
2023-02-22T17:48:26.748Z,43.67
2023-02-22T17:50:54.600Z,39.83
2023-02-22T17:53:24.680Z,34.92
2023-02-22T17:55:52.890Z,23.27
2023-02-22T17:58:23.612Z,28.73
2023-02-22T18:00:53.210Z,28.30
2023-02-22T18:03:25.659Z,17.13
2023-02-22T18:05:56.321Z,23.95
2023-02-22T18:08:24.930Z,24.75
2023-02-22T18:10:56.612Z,18.20
2023-02-22T18:13:27.958Z,17.40
2023-02-22T18:15:59.860Z,12.75
2023-02-22T18:18:28.291Z,15.85
2023-02-22T18:20:59.787Z,12.27
2023-02-22T18:23:29.552Z,22.63
2023-02-22T18:26:10.169Z,23.70
2023-02-22T18:28:40.922Z,13.63
2023-02-22T18:31:10.070Z,11.88
2023-02-22T18:33:37.945Z,13.60
2023-02-22T18:36:06.427Z,9.95
2023-02-22T18:38:34.205Z,14.43
2023-02-22T18:41:03.461Z,11.88
2023-02-22T18:43:34.164Z,12.35
2023-02-22T18:46:10.763Z,11.13
2023-02-22T18:51:12.032Z,8.27
2023-02-22T18:53:41.234Z,9.35
2023-02-22T18:56:11.082Z,10.32
2023-02-22T18:58:39.678Z,15.20
2023-02-22T19:01:09.923Z,12.52
2023-02-22T19:03:38.900Z,11.20
2023-02-22T19:06:09.620Z,10.32
2023-02-22T19:08:39.584Z,15.57
2023-02-22T19:11:09.191Z,14.43
2023-02-22T19:13:37.081Z,9.40
2023-02-22T19:16:07.241Z,14.27
2023-02-22T19:18:37.500Z,12.60
2023-02-22T19:21:08.924Z,10.77
2023-02-22T19:23:38.110Z,11.65
2023-02-22T19:26:09.399Z,14.73
2023-02-22T19:28:37.155Z,12.82
2023-02-22T19:31:13.395Z,11.55
2023-02-22T19:33:42.990Z,14.60
2023-02-22T19:36:12.425Z,21.05
2023-02-22T19:38:40.649Z,10.93
2023-02-22T19:41:10.338Z,14.90
2023-02-22T19:43:38.295Z,9.63
2023-02-22T19:46:06.815Z,11.05
2023-02-22T19:48:35.524Z,7.28
2023-02-22T19:51:06.270Z,11.07
2023-02-22T19:53:34.378Z,11.27
2023-02-22T19:56:06.975Z,12.90
2023-02-22T19:58:36.644Z,9.85
2023-02-22T20:01:12.184Z,12.43
2023-02-22T20:03:40.979Z,12.02
2023-02-22T20:06:10.760Z,9.88
2023-02-22T20:08:41.982Z,10.85
2023-02-22T20:11:10.698Z,13.80
2023-02-22T20:13:38.777Z,12.00
2023-02-22T20:16:07.690Z,10.50
2023-02-22T20:18:36.550Z,17.63
2023-02-22T20:21:08.435Z,11.35
2023-02-22T20:23:40.084Z,18.20
2023-02-22T20:26:16.136Z,11.38
2023-02-22T20:28:43.888Z,13.23
2023-02-22T20:31:13.746Z,13.77
2023-02-22T20:33:42.688Z,12.48
2023-02-22T20:36:12.418Z,13.20
2023-02-22T20:38:41.645Z,13.95
2023-02-22T20:41:12.795Z,16.02
2023-02-22T20:43:40.790Z,14.23
2023-02-22T20:46:09.042Z,14.50
2023-02-22T20:48:37.126Z,12.10
2023-02-22T20:51:08.977Z,14.05
2023-02-22T20:53:39.344Z,12.48
2023-02-22T20:56:12.304Z,18.98
2023-02-22T20:58:40.103Z,15.05
2023-02-22T21:01:11.912Z,14.68
2023-02-22T21:03:40.757Z,12.48
2023-02-22T21:06:09.989Z,13.57
2023-02-22T21:08:37.736Z,15.90
2023-02-22T21:11:12.787Z,10.73
2023-02-22T21:13:40.559Z,18.27
2023-02-22T21:16:10.321Z,15.50
2023-02-22T21:18:38.405Z,14.32
2023-02-22T21:21:10.112Z,13.90
2023-02-22T21:23:38.269Z,11.43
2023-02-22T21:26:07.074Z,13.20
2023-02-22T21:28:52.817Z,14.50
2023-02-22T21:31:22.904Z,19.77
2023-02-22T21:33:52.546Z,16.98
2023-02-22T21:36:24.917Z,17.38
2023-02-22T21:38:55.115Z,15.80
2023-02-22T21:41:27.563Z,16.92
2023-02-22T21:43:57.818Z,18.90
2023-02-22T21:46:26.395Z,17.85
2023-02-22T21:48:54.200Z,17.80
2023-02-22T21:51:23.599Z,20.40
2023-02-22T21:53:53.519Z,19.65
2023-02-22T21:56:24.215Z,20.42
2023-02-22T21:58:59.697Z,16.73
2023-02-22T22:01:28.383Z,21.02
2023-02-22T22:03:59.706Z,18.60
2023-02-22T22:06:28.621Z,18.23
2023-02-22T22:08:57.243Z,23.90
2023-02-22T22:11:25.269Z,19.75
2023-02-22T22:13:56.935Z,15.40
2023-02-22T22:16:29.766Z,15.70
2023-02-22T22:18:58.247Z,17.02
2023-02-22T22:21:26.679Z,19.70
2023-02-22T22:23:56.091Z,26.27
2023-02-22T22:26:25.410Z,25.27
2023-02-22T22:28:56.210Z,20.98
2023-02-22T22:31:26.819Z,23.17
2023-02-22T22:33:56.189Z,19.38
2023-02-22T22:36:25.981Z,20.75
2023-02-22T22:38:57.265Z,18.50
2023-02-22T22:41:27.966Z,28.88
2023-02-22T22:43:56.092Z,20.52
2023-02-22T22:46:24.247Z,30.60
2023-02-22T22:48:53.402Z,26.25
2023-02-22T22:51:22.593Z,27.73
2023-02-22T22:53:51.961Z,23.42
2023-02-22T22:56:25.883Z,27.27
2023-02-22T22:58:55.176Z,27.98
2023-02-22T23:01:27.256Z,31.05
2023-02-22T23:04:01.575Z,31.10
2023-02-22T23:06:32.933Z,26.50
2023-02-22T23:09:10.297Z,26.88
2023-02-22T23:11:44.150Z,22.65
2023-02-22T23:14:13.294Z,27.92
2023-02-22T23:16:42.500Z,32.67
2023-02-22T23:19:11.589Z,30.23
2023-02-22T23:21:42.666Z,31.17
2023-02-22T23:24:10.822Z,32.47
2023-02-22T23:26:38.549Z,35.78
2023-02-22T23:29:08.717Z,25.13
2023-02-22T23:31:39.567Z,29.13
2023-02-22T23:34:11.147Z,31.40
2023-02-22T23:36:44.208Z,38.47
2023-02-22T23:39:12.436Z,40.10
2023-02-22T23:41:40.173Z,31.70
2023-02-22T23:44:08.527Z,40.78
2023-02-22T23:46:36.524Z,37.10
2023-02-22T23:49:05.578Z,35.67
2023-02-22T23:51:39.229Z,38.17
2023-02-22T23:54:09.778Z,33.03
2023-02-22T23:56:40.259Z,45.55
2023-02-22T23:59:11.213Z,40.90
